Bordeaux, Wyoming
Current Conditions -  °F | °C
As of 9:15 AM on Saturday 25 Oct 2014 (Local Time) from KGUR Reporting Station
Clear Clear  
Wind Chill: 11°   Ceiling: Unl
Heat Index: 11°   Visibility: 10mi
Dew Point:   Wind: 3mph
Humidity: 61%   Direction: 140°SE
Pressure: 30.19"   Gusts: NA
Location:  42.0178°N, 105.098°W
Report Text: KGUR 251515Z AUTO 14003KT 10SM CLR 11/04 A3019 RMK AO2 T01140040
Loading
Personal Weather Stations






























Interactive Weather Map
Tropical Storm Tracking
New forecast layout! Learn more

10-Day Weather Forecast

Advertisements
Track Severe Weather on mobile